<?xml version="1.0" encoding="UTF-8" standalone="no" ?>
<gpx xmlns="http://www.topografix.com/GPX/1/1" xmlns:xsi="http://www.w3.org/2001/XMLSchema-instance" xsi:schemaLocation="http://www.topografix.com/GPX/1/1 http://www.topografix.com/GPX/1/1/gpx.xsd" version="1.1" creator="VisuGPX - https://www.visugpx.com">
  <metadata>
    <name>traversée baie de somme</name>
    <desc><![CDATA[la baie de Somme du Crotoy à St-Valéry]]></desc>
  </metadata>
  <trk>
    <name><![CDATA[2014-09-20-02]]></name>
    <trkseg>
      <trkpt lat="50.21332" lon="1.63685">
        <ele>23.2</ele>
        <time>2014-09-20T11:41:05Z</time>
      </trkpt>
      <trkpt lat="50.21332" lon="1.63686">
        <ele>21.4</ele>
        <time>2014-09-20T11:41:06Z</time>
      </trkpt>
      <trkpt lat="50.21328" lon="1.63712">
        <ele>7.6</ele>
        <time>2014-09-20T11:41:23Z</time>
      </trkpt>
      <trkpt lat="50.21325" lon="1.63723">
        <ele>7.2</ele>
        <time>2014-09-20T11:41:29Z</time>
      </trkpt>
      <trkpt lat="50.21321" lon="1.63735">
        <ele>7.2</ele>
        <time>2014-09-20T11:41:37Z</time>
      </trkpt>
      <trkpt lat="50.21314" lon="1.63728">
        <ele>7.1</ele>
        <time>2014-09-20T11:42:37Z</time>
      </trkpt>
      <trkpt lat="50.21314" lon="1.63728">
        <ele>7.1</ele>
        <time>2014-09-20T11:42:38Z</time>
      </trkpt>
      <trkpt lat="50.21306" lon="1.63735">
        <ele>5.6</ele>
        <time>2014-09-20T11:48:26Z</time>
      </trkpt>
      <trkpt lat="50.21302" lon="1.63761">
        <ele>5.2</ele>
        <time>2014-09-20T11:48:48Z</time>
      </trkpt>
      <trkpt lat="50.21302" lon="1.63774">
        <ele>5.2</ele>
        <time>2014-09-20T11:49:02Z</time>
      </trkpt>
      <trkpt lat="50.213" lon="1.63787">
        <ele>-6.1</ele>
        <time>2014-09-20T11:49:13Z</time>
      </trkpt>
      <trkpt lat="50.21298" lon="1.63801">
        <ele>-7.7</ele>
        <time>2014-09-20T11:49:23Z</time>
      </trkpt>
      <trkpt lat="50.21296" lon="1.63814">
        <ele>-7.3</ele>
        <time>2014-09-20T11:49:32Z</time>
      </trkpt>
      <trkpt lat="50.21296" lon="1.63815">
        <ele>-7.4</ele>
        <time>2014-09-20T11:49:33Z</time>
      </trkpt>
      <trkpt lat="50.21294" lon="1.63839">
        <ele>-7.4</ele>
        <time>2014-09-20T11:49:50Z</time>
      </trkpt>
      <trkpt lat="50.21292" lon="1.63853">
        <ele>-8.2</ele>
        <time>2014-09-20T11:49:59Z</time>
      </trkpt>
      <trkpt lat="50.21292" lon="1.63865">
        <ele>-7.5</ele>
        <time>2014-09-20T11:50:08Z</time>
      </trkpt>
      <trkpt lat="50.21291" lon="1.63878">
        <ele>-6.8</ele>
        <time>2014-09-20T11:50:18Z</time>
      </trkpt>
      <trkpt lat="50.21291" lon="1.63891">
        <ele>-6.5</ele>
        <time>2014-09-20T11:50:30Z</time>
      </trkpt>
      <trkpt lat="50.21284" lon="1.63901">
        <ele>-7.6</ele>
        <time>2014-09-20T11:51:46Z</time>
      </trkpt>
      <trkpt lat="50.21284" lon="1.63901">
        <ele>-7.6</ele>
        <time>2014-09-20T11:51:47Z</time>
      </trkpt>
      <trkpt lat="50.21275" lon="1.63904">
        <ele>-8.7</ele>
        <time>2014-09-20T11:52:48Z</time>
      </trkpt>
      <trkpt lat="50.21259" lon="1.63899">
        <ele>-6.9</ele>
        <time>2014-09-20T11:53:16Z</time>
      </trkpt>
      <trkpt lat="50.2125" lon="1.63901">
        <ele>-8.6</ele>
        <time>2014-09-20T11:53:46Z</time>
      </trkpt>
      <trkpt lat="50.21242" lon="1.63907">
        <ele>-8.1</ele>
        <time>2014-09-20T11:54:12Z</time>
      </trkpt>
      <trkpt lat="50.21242" lon="1.63907">
        <ele>-8.4</ele>
        <time>2014-09-20T11:54:13Z</time>
      </trkpt>
      <trkpt lat="50.21233" lon="1.63913">
        <ele>-7</ele>
        <time>2014-09-20T11:56:04Z</time>
      </trkpt>
      <trkpt lat="50.21218" lon="1.6392">
        <ele>-6.8</ele>
        <time>2014-09-20T11:56:22Z</time>
      </trkpt>
      <trkpt lat="50.2121" lon="1.63923">
        <ele>-7.4</ele>
        <time>2014-09-20T11:56:32Z</time>
      </trkpt>
      <trkpt lat="50.21201" lon="1.63925">
        <ele>-7.5</ele>
        <time>2014-09-20T11:56:42Z</time>
      </trkpt>
      <trkpt lat="50.21192" lon="1.63927">
        <ele>-7.2</ele>
        <time>2014-09-20T11:56:53Z</time>
      </trkpt>
      <trkpt lat="50.21183" lon="1.63925">
        <ele>-7.2</ele>
        <time>2014-09-20T11:57:11Z</time>
      </trkpt>
      <trkpt lat="50.21183" lon="1.63925">
        <ele>-7.3</ele>
        <time>2014-09-20T11:57:12Z</time>
      </trkpt>
      <trkpt lat="50.21166" lon="1.6392">
        <ele>-7.3</ele>
        <time>2014-09-20T11:57:45Z</time>
      </trkpt>
      <trkpt lat="50.21157" lon="1.63917">
        <ele>-7.8</ele>
        <time>2014-09-20T11:58:01Z</time>
      </trkpt>
      <trkpt lat="50.21149" lon="1.63915">
        <ele>-6.9</ele>
        <time>2014-09-20T11:58:17Z</time>
      </trkpt>
      <trkpt lat="50.21148" lon="1.63915">
        <ele>-6.6</ele>
        <time>2014-09-20T11:58:18Z</time>
      </trkpt>
      <trkpt lat="50.21135" lon="1.63899">
        <ele>-7.4</ele>
        <time>2014-09-20T12:00:34Z</time>
      </trkpt>
      <trkpt lat="50.21135" lon="1.63899">
        <ele>-7.3</ele>
        <time>2014-09-20T12:00:35Z</time>
      </trkpt>
      <trkpt lat="50.21126" lon="1.63893">
        <ele>-8</ele>
        <time>2014-09-20T12:03:53Z</time>
      </trkpt>
      <trkpt lat="50.2111" lon="1.63892">
        <ele>-7.7</ele>
        <time>2014-09-20T12:04:08Z</time>
      </trkpt>
      <trkpt lat="50.21102" lon="1.63893">
        <ele>-6.6</ele>
        <time>2014-09-20T12:04:17Z</time>
      </trkpt>
      <trkpt lat="50.21093" lon="1.63896">
        <ele>-8.1</ele>
        <time>2014-09-20T12:04:25Z</time>
      </trkpt>
      <trkpt lat="50.21085" lon="1.639">
        <ele>-7.7</ele>
        <time>2014-09-20T12:04:34Z</time>
      </trkpt>
      <trkpt lat="50.21077" lon="1.63904">
        <ele>-7.2</ele>
        <time>2014-09-20T12:04:45Z</time>
      </trkpt>
      <trkpt lat="50.21069" lon="1.63906">
        <ele>-6.8</ele>
        <time>2014-09-20T12:04:54Z</time>
      </trkpt>
      <trkpt lat="50.21068" lon="1.63906">
        <ele>-7</ele>
        <time>2014-09-20T12:04:55Z</time>
      </trkpt>
      <trkpt lat="50.21052" lon="1.63913">
        <ele>-7.4</ele>
        <time>2014-09-20T12:05:11Z</time>
      </trkpt>
      <trkpt lat="50.21045" lon="1.63918">
        <ele>-7.5</ele>
        <time>2014-09-20T12:05:21Z</time>
      </trkpt>
      <trkpt lat="50.21036" lon="1.63921">
        <ele>-7.6</ele>
        <time>2014-09-20T12:05:32Z</time>
      </trkpt>
      <trkpt lat="50.21028" lon="1.63922">
        <ele>-7.5</ele>
        <time>2014-09-20T12:05:48Z</time>
      </trkpt>
      <trkpt lat="50.2102" lon="1.63917">
        <ele>-6.9</ele>
        <time>2014-09-20T12:06:08Z</time>
      </trkpt>
      <trkpt lat="50.21019" lon="1.63916">
        <ele>-6.9</ele>
        <time>2014-09-20T12:06:09Z</time>
      </trkpt>
      <trkpt lat="50.21003" lon="1.63926">
        <ele>-6.9</ele>
        <time>2014-09-20T12:07:09Z</time>
      </trkpt>
      <trkpt lat="50.21003" lon="1.63926">
        <ele>-7.1</ele>
        <time>2014-09-20T12:07:10Z</time>
      </trkpt>
      <trkpt lat="50.20986" lon="1.63927">
        <ele>-7.6</ele>
        <time>2014-09-20T12:07:29Z</time>
      </trkpt>
      <trkpt lat="50.20978" lon="1.6393">
        <ele>-8</ele>
        <time>2014-09-20T12:07:37Z</time>
      </trkpt>
      <trkpt lat="50.2097" lon="1.63932">
        <ele>-6.5</ele>
        <time>2014-09-20T12:07:45Z</time>
      </trkpt>
      <trkpt lat="50.20962" lon="1.63932">
        <ele>-6.8</ele>
        <time>2014-09-20T12:07:53Z</time>
      </trkpt>
      <trkpt lat="50.20954" lon="1.63929">
        <ele>-8.4</ele>
        <time>2014-09-20T12:08:01Z</time>
      </trkpt>
      <trkpt lat="50.20951" lon="1.63917">
        <ele>-6.3</ele>
        <time>2014-09-20T12:13:22Z</time>
      </trkpt>
      <trkpt lat="50.2095" lon="1.63916">
        <ele>-6.4</ele>
        <time>2014-09-20T12:13:23Z</time>
      </trkpt>
      <trkpt lat="50.20935" lon="1.63906">
        <ele>-7.2</ele>
        <time>2014-09-20T12:13:39Z</time>
      </trkpt>
      <trkpt lat="50.20928" lon="1.63903">
        <ele>-7.7</ele>
        <time>2014-09-20T12:13:47Z</time>
      </trkpt>
      <trkpt lat="50.2092" lon="1.639">
        <ele>-6.8</ele>
        <time>2014-09-20T12:13:55Z</time>
      </trkpt>
      <trkpt lat="50.20912" lon="1.63895">
        <ele>-6.9</ele>
        <time>2014-09-20T12:14:03Z</time>
      </trkpt>
      <trkpt lat="50.20904" lon="1.6389">
        <ele>-6.6</ele>
        <time>2014-09-20T12:14:12Z</time>
      </trkpt>
      <trkpt lat="50.20896" lon="1.63885">
        <ele>-6.4</ele>
        <time>2014-09-20T12:14:20Z</time>
      </trkpt>
      <trkpt lat="50.20889" lon="1.6388">
        <ele>-6.4</ele>
        <time>2014-09-20T12:14:28Z</time>
      </trkpt>
      <trkpt lat="50.20888" lon="1.6388">
        <ele>-6.5</ele>
        <time>2014-09-20T12:14:29Z</time>
      </trkpt>
      <trkpt lat="50.20872" lon="1.63876">
        <ele>-6.7</ele>
        <time>2014-09-20T12:14:47Z</time>
      </trkpt>
      <trkpt lat="50.20864" lon="1.63872">
        <ele>-6.1</ele>
        <time>2014-09-20T12:14:56Z</time>
      </trkpt>
      <trkpt lat="50.20856" lon="1.63866">
        <ele>-5.4</ele>
        <time>2014-09-20T12:15:04Z</time>
      </trkpt>
      <trkpt lat="50.20848" lon="1.63862">
        <ele>-5.3</ele>
        <time>2014-09-20T12:15:13Z</time>
      </trkpt>
      <trkpt lat="50.20839" lon="1.63857">
        <ele>-6.7</ele>
        <time>2014-09-20T12:15:24Z</time>
      </trkpt>
      <trkpt lat="50.20831" lon="1.63858">
        <ele>-5.6</ele>
        <time>2014-09-20T12:15:33Z</time>
      </trkpt>
      <trkpt lat="50.2083" lon="1.63858">
        <ele>-5.7</ele>
        <time>2014-09-20T12:15:34Z</time>
      </trkpt>
      <trkpt lat="50.20815" lon="1.63853">
        <ele>-6.8</ele>
        <time>2014-09-20T12:16:08Z</time>
      </trkpt>
      <trkpt lat="50.20808" lon="1.63849">
        <ele>-5.6</ele>
        <time>2014-09-20T12:16:15Z</time>
      </trkpt>
      <trkpt lat="50.208" lon="1.63844">
        <ele>-6.7</ele>
        <time>2014-09-20T12:16:23Z</time>
      </trkpt>
      <trkpt lat="50.20792" lon="1.63841">
        <ele>-5.6</ele>
        <time>2014-09-20T12:16:31Z</time>
      </trkpt>
      <trkpt lat="50.20783" lon="1.63839">
        <ele>-6.3</ele>
        <time>2014-09-20T12:16:39Z</time>
      </trkpt>
      <trkpt lat="50.20782" lon="1.63839">
        <ele>-6.7</ele>
        <time>2014-09-20T12:16:40Z</time>
      </trkpt>
      <trkpt lat="50.20767" lon="1.63839">
        <ele>-7.3</ele>
        <time>2014-09-20T12:16:55Z</time>
      </trkpt>
      <trkpt lat="50.20759" lon="1.63847">
        <ele>-5.9</ele>
        <time>2014-09-20T12:17:04Z</time>
      </trkpt>
      <trkpt lat="50.20751" lon="1.63851">
        <ele>-2</ele>
        <time>2014-09-20T12:18:32Z</time>
      </trkpt>
      <trkpt lat="50.20751" lon="1.63851">
        <ele>-2.6</ele>
        <time>2014-09-20T12:18:33Z</time>
      </trkpt>
      <trkpt lat="50.20759" lon="1.63859">
        <ele>-5.4</ele>
        <time>2014-09-20T12:20:06Z</time>
      </trkpt>
      <trkpt lat="50.20746" lon="1.63842">
        <ele>-4.6</ele>
        <time>2014-09-20T12:21:26Z</time>
      </trkpt>
      <trkpt lat="50.20746" lon="1.63841">
        <ele>-4.5</ele>
        <time>2014-09-20T12:21:27Z</time>
      </trkpt>
      <trkpt lat="50.20733" lon="1.63826">
        <ele>-4.6</ele>
        <time>2014-09-20T12:22:46Z</time>
      </trkpt>
      <trkpt lat="50.20732" lon="1.63825">
        <ele>-5.2</ele>
        <time>2014-09-20T12:22:47Z</time>
      </trkpt>
      <trkpt lat="50.20716" lon="1.63822">
        <ele>-5.9</ele>
        <time>2014-09-20T12:23:11Z</time>
      </trkpt>
      <trkpt lat="50.20707" lon="1.63821">
        <ele>-4.3</ele>
        <time>2014-09-20T12:23:20Z</time>
      </trkpt>
      <trkpt lat="50.20698" lon="1.63819">
        <ele>-4.4</ele>
        <time>2014-09-20T12:23:30Z</time>
      </trkpt>
      <trkpt lat="50.2069" lon="1.63822">
        <ele>-4.9</ele>
        <time>2014-09-20T12:23:42Z</time>
      </trkpt>
      <trkpt lat="50.20682" lon="1.63815">
        <ele>-2.7</ele>
        <time>2014-09-20T12:24:00Z</time>
      </trkpt>
      <trkpt lat="50.20682" lon="1.63815">
        <ele>-2.7</ele>
        <time>2014-09-20T12:24:01Z</time>
      </trkpt>
      <trkpt lat="50.20665" lon="1.63822">
        <ele>-4.3</ele>
        <time>2014-09-20T12:24:33Z</time>
      </trkpt>
      <trkpt lat="50.20657" lon="1.63825">
        <ele>-4.9</ele>
        <time>2014-09-20T12:24:41Z</time>
      </trkpt>
      <trkpt lat="50.20649" lon="1.63831">
        <ele>-7.4</ele>
        <time>2014-09-20T12:24:49Z</time>
      </trkpt>
      <trkpt lat="50.2064" lon="1.63835">
        <ele>-2.3</ele>
        <time>2014-09-20T12:24:57Z</time>
      </trkpt>
      <trkpt lat="50.20632" lon="1.63838">
        <ele>-1.9</ele>
        <time>2014-09-20T12:25:05Z</time>
      </trkpt>
      <trkpt lat="50.20631" lon="1.63839">
        <ele>-1.7</ele>
        <time>2014-09-20T12:25:06Z</time>
      </trkpt>
      <trkpt lat="50.20616" lon="1.63842">
        <ele>-1.6</ele>
        <time>2014-09-20T12:25:21Z</time>
      </trkpt>
      <trkpt lat="50.20608" lon="1.63845">
        <ele>-2.3</ele>
        <time>2014-09-20T12:25:30Z</time>
      </trkpt>
      <trkpt lat="50.20599" lon="1.63848">
        <ele>-4.7</ele>
        <time>2014-09-20T12:25:39Z</time>
      </trkpt>
      <trkpt lat="50.20592" lon="1.63852">
        <ele>-2.1</ele>
        <time>2014-09-20T12:25:47Z</time>
      </trkpt>
      <trkpt lat="50.20583" lon="1.63852">
        <ele>-1.7</ele>
        <time>2014-09-20T12:25:56Z</time>
      </trkpt>
      <trkpt lat="50.20575" lon="1.63848">
        <ele>-3.1</ele>
        <time>2014-09-20T12:26:05Z</time>
      </trkpt>
      <trkpt lat="50.20567" lon="1.63842">
        <ele>-3.3</ele>
        <time>2014-09-20T12:26:15Z</time>
      </trkpt>
      <trkpt lat="50.20567" lon="1.63841">
        <ele>-3.6</ele>
        <time>2014-09-20T12:26:16Z</time>
      </trkpt>
      <trkpt lat="50.20551" lon="1.63835">
        <ele>-2.1</ele>
        <time>2014-09-20T12:26:40Z</time>
      </trkpt>
      <trkpt lat="50.20546" lon="1.63824">
        <ele>-0.5</ele>
        <time>2014-09-20T12:26:53Z</time>
      </trkpt>
      <trkpt lat="50.20545" lon="1.6381">
        <ele>-2.8</ele>
        <time>2014-09-20T12:33:10Z</time>
      </trkpt>
      <trkpt lat="50.20545" lon="1.63809">
        <ele>-2.7</ele>
        <time>2014-09-20T12:33:11Z</time>
      </trkpt>
      <trkpt lat="50.20547" lon="1.63783">
        <ele>-1.8</ele>
        <time>2014-09-20T12:33:34Z</time>
      </trkpt>
      <trkpt lat="50.20548" lon="1.6377">
        <ele>-6.2</ele>
        <time>2014-09-20T12:33:46Z</time>
      </trkpt>
      <trkpt lat="50.20548" lon="1.63756">
        <ele>-4.5</ele>
        <time>2014-09-20T12:33:59Z</time>
      </trkpt>
      <trkpt lat="50.20546" lon="1.63746">
        <ele>-7.1</ele>
        <time>2014-09-20T12:34:04Z</time>
      </trkpt>
      <trkpt lat="50.20542" lon="1.63734">
        <ele>-2.5</ele>
        <time>2014-09-20T12:34:08Z</time>
      </trkpt>
      <trkpt lat="50.20538" lon="1.63723">
        <ele>-1.1</ele>
        <time>2014-09-20T12:34:18Z</time>
      </trkpt>
      <trkpt lat="50.20538" lon="1.63722">
        <ele>-1.1</ele>
        <time>2014-09-20T12:34:19Z</time>
      </trkpt>
      <trkpt lat="50.20523" lon="1.63715">
        <ele>-2.7</ele>
        <time>2014-09-20T12:34:39Z</time>
      </trkpt>
      <trkpt lat="50.20515" lon="1.63718">
        <ele>-1.9</ele>
        <time>2014-09-20T12:34:48Z</time>
      </trkpt>
      <trkpt lat="50.20508" lon="1.63726">
        <ele>-1.2</ele>
        <time>2014-09-20T12:34:57Z</time>
      </trkpt>
      <trkpt lat="50.20501" lon="1.63734">
        <ele>-1.1</ele>
        <time>2014-09-20T12:35:07Z</time>
      </trkpt>
      <trkpt lat="50.20494" lon="1.63741">
        <ele>-5.2</ele>
        <time>2014-09-20T12:35:17Z</time>
      </trkpt>
      <trkpt lat="50.20486" lon="1.63746">
        <ele>-2.8</ele>
        <time>2014-09-20T12:35:27Z</time>
      </trkpt>
      <trkpt lat="50.20485" lon="1.63746">
        <ele>-2.3</ele>
        <time>2014-09-20T12:35:28Z</time>
      </trkpt>
      <trkpt lat="50.2047" lon="1.63742">
        <ele>-4.9</ele>
        <time>2014-09-20T12:35:47Z</time>
      </trkpt>
      <trkpt lat="50.20461" lon="1.63739">
        <ele>-2.5</ele>
        <time>2014-09-20T12:36:03Z</time>
      </trkpt>
      <trkpt lat="50.20453" lon="1.63735">
        <ele>-4.3</ele>
        <time>2014-09-20T12:36:12Z</time>
      </trkpt>
      <trkpt lat="50.20445" lon="1.6373">
        <ele>-2.6</ele>
        <time>2014-09-20T12:36:22Z</time>
      </trkpt>
      <trkpt lat="50.20438" lon="1.63721">
        <ele>-3.3</ele>
        <time>2014-09-20T12:36:52Z</time>
      </trkpt>
      <trkpt lat="50.20438" lon="1.63721">
        <ele>-3.2</ele>
        <time>2014-09-20T12:36:53Z</time>
      </trkpt>
      <trkpt lat="50.2043" lon="1.63698">
        <ele>-1.9</ele>
        <time>2014-09-20T12:37:20Z</time>
      </trkpt>
      <trkpt lat="50.20424" lon="1.63688">
        <ele>-3.7</ele>
        <time>2014-09-20T12:37:28Z</time>
      </trkpt>
      <trkpt lat="50.20418" lon="1.63679">
        <ele>-1.1</ele>
        <time>2014-09-20T12:37:37Z</time>
      </trkpt>
      <trkpt lat="50.20412" lon="1.63669">
        <ele>-0.9</ele>
        <time>2014-09-20T12:37:48Z</time>
      </trkpt>
      <trkpt lat="50.20405" lon="1.6366">
        <ele>-3</ele>
        <time>2014-09-20T12:38:02Z</time>
      </trkpt>
      <trkpt lat="50.20405" lon="1.63659">
        <ele>-2.7</ele>
        <time>2014-09-20T12:38:03Z</time>
      </trkpt>
      <trkpt lat="50.2039" lon="1.63646">
        <ele>-1.6</ele>
        <time>2014-09-20T12:38:42Z</time>
      </trkpt>
      <trkpt lat="50.20386" lon="1.63634">
        <ele>-2.3</ele>
        <time>2014-09-20T12:38:52Z</time>
      </trkpt>
      <trkpt lat="50.20384" lon="1.63622">
        <ele>-1</ele>
        <time>2014-09-20T12:38:59Z</time>
      </trkpt>
      <trkpt lat="50.20382" lon="1.63609">
        <ele>-2</ele>
        <time>2014-09-20T12:39:07Z</time>
      </trkpt>
      <trkpt lat="50.20382" lon="1.63608">
        <ele>-3.6</ele>
        <time>2014-09-20T12:39:08Z</time>
      </trkpt>
      <trkpt lat="50.20377" lon="1.63584">
        <ele>-3.5</ele>
        <time>2014-09-20T12:39:24Z</time>
      </trkpt>
      <trkpt lat="50.20375" lon="1.63571">
        <ele>-2.7</ele>
        <time>2014-09-20T12:39:31Z</time>
      </trkpt>
      <trkpt lat="50.20371" lon="1.6356">
        <ele>-3.2</ele>
        <time>2014-09-20T12:39:39Z</time>
      </trkpt>
      <trkpt lat="50.20367" lon="1.63549">
        <ele>-3.1</ele>
        <time>2014-09-20T12:39:47Z</time>
      </trkpt>
      <trkpt lat="50.2036" lon="1.63542">
        <ele>-2.5</ele>
        <time>2014-09-20T12:39:56Z</time>
      </trkpt>
      <trkpt lat="50.20351" lon="1.63537">
        <ele>-3.6</ele>
        <time>2014-09-20T12:40:06Z</time>
      </trkpt>
      <trkpt lat="50.20344" lon="1.63533">
        <ele>-3</ele>
        <time>2014-09-20T12:40:14Z</time>
      </trkpt>
      <trkpt lat="50.20343" lon="1.63533">
        <ele>-3.1</ele>
        <time>2014-09-20T12:40:15Z</time>
      </trkpt>
      <trkpt lat="50.20328" lon="1.63522">
        <ele>-3.9</ele>
        <time>2014-09-20T12:40:33Z</time>
      </trkpt>
      <trkpt lat="50.20321" lon="1.63514">
        <ele>-3.6</ele>
        <time>2014-09-20T12:40:44Z</time>
      </trkpt>
      <trkpt lat="50.20314" lon="1.63507">
        <ele>-3</ele>
        <time>2014-09-20T12:41:09Z</time>
      </trkpt>
      <trkpt lat="50.20307" lon="1.63498">
        <ele>-3.9</ele>
        <time>2014-09-20T12:41:24Z</time>
      </trkpt>
      <trkpt lat="50.20306" lon="1.63497">
        <ele>-3.8</ele>
        <time>2014-09-20T12:41:25Z</time>
      </trkpt>
      <trkpt lat="50.20296" lon="1.63477">
        <ele>-0.7</ele>
        <time>2014-09-20T12:41:44Z</time>
      </trkpt>
      <trkpt lat="50.20289" lon="1.63468">
        <ele>-5.1</ele>
        <time>2014-09-20T12:41:55Z</time>
      </trkpt>
      <trkpt lat="50.20283" lon="1.63458">
        <ele>-1.7</ele>
        <time>2014-09-20T12:42:03Z</time>
      </trkpt>
      <trkpt lat="50.20278" lon="1.63448">
        <ele>-4.4</ele>
        <time>2014-09-20T12:42:11Z</time>
      </trkpt>
      <trkpt lat="50.20274" lon="1.63436">
        <ele>-1.9</ele>
        <time>2014-09-20T12:42:20Z</time>
      </trkpt>
      <trkpt lat="50.2027" lon="1.63424">
        <ele>-1.3</ele>
        <time>2014-09-20T12:42:29Z</time>
      </trkpt>
      <trkpt lat="50.2027" lon="1.63423">
        <ele>-1.4</ele>
        <time>2014-09-20T12:42:30Z</time>
      </trkpt>
      <trkpt lat="50.20264" lon="1.63413">
        <ele>-2.2</ele>
        <time>2014-09-20T12:47:04Z</time>
      </trkpt>
      <trkpt lat="50.20256" lon="1.6339">
        <ele>-1</ele>
        <time>2014-09-20T12:47:31Z</time>
      </trkpt>
      <trkpt lat="50.20253" lon="1.63378">
        <ele>-2.8</ele>
        <time>2014-09-20T12:47:54Z</time>
      </trkpt>
      <trkpt lat="50.20245" lon="1.63371">
        <ele>-1.5</ele>
        <time>2014-09-20T12:48:07Z</time>
      </trkpt>
      <trkpt lat="50.20245" lon="1.6337">
        <ele>-1.4</ele>
        <time>2014-09-20T12:48:08Z</time>
      </trkpt>
      <trkpt lat="50.20235" lon="1.6335">
        <ele>-0.2</ele>
        <time>2014-09-20T12:48:41Z</time>
      </trkpt>
      <trkpt lat="50.2023" lon="1.63339">
        <ele>-0.5</ele>
        <time>2014-09-20T12:48:50Z</time>
      </trkpt>
      <trkpt lat="50.20226" lon="1.63327">
        <ele>-1</ele>
        <time>2014-09-20T12:48:59Z</time>
      </trkpt>
      <trkpt lat="50.20222" lon="1.63314">
        <ele>-0.2</ele>
        <time>2014-09-20T12:49:08Z</time>
      </trkpt>
      <trkpt lat="50.20221" lon="1.63312">
        <ele>4.3</ele>
        <time>2014-09-20T12:49:09Z</time>
      </trkpt>
      <trkpt lat="50.20214" lon="1.63289">
        <ele>-2.4</ele>
        <time>2014-09-20T12:49:26Z</time>
      </trkpt>
      <trkpt lat="50.20208" lon="1.63279">
        <ele>-3.2</ele>
        <time>2014-09-20T12:49:35Z</time>
      </trkpt>
      <trkpt lat="50.20201" lon="1.63273">
        <ele>-3.2</ele>
        <time>2014-09-20T12:49:43Z</time>
      </trkpt>
      <trkpt lat="50.20193" lon="1.63268">
        <ele>-2.2</ele>
        <time>2014-09-20T12:49:51Z</time>
      </trkpt>
      <trkpt lat="50.20185" lon="1.63263">
        <ele>-5.7</ele>
        <time>2014-09-20T12:49:59Z</time>
      </trkpt>
      <trkpt lat="50.20178" lon="1.63255">
        <ele>-2.8</ele>
        <time>2014-09-20T12:50:08Z</time>
      </trkpt>
      <trkpt lat="50.20173" lon="1.63244">
        <ele>-3.4</ele>
        <time>2014-09-20T12:50:18Z</time>
      </trkpt>
      <trkpt lat="50.20173" lon="1.63243">
        <ele>-2.8</ele>
        <time>2014-09-20T12:50:19Z</time>
      </trkpt>
      <trkpt lat="50.20163" lon="1.63224">
        <ele>-0.9</ele>
        <time>2014-09-20T12:50:39Z</time>
      </trkpt>
      <trkpt lat="50.20157" lon="1.63213">
        <ele>-0.2</ele>
        <time>2014-09-20T12:50:50Z</time>
      </trkpt>
      <trkpt lat="50.2015" lon="1.63207">
        <ele>-7.5</ele>
        <time>2014-09-20T12:51:03Z</time>
      </trkpt>
      <trkpt lat="50.20142" lon="1.632">
        <ele>-1.5</ele>
        <time>2014-09-20T12:51:14Z</time>
      </trkpt>
      <trkpt lat="50.20134" lon="1.63195">
        <ele>-3.6</ele>
        <time>2014-09-20T12:51:26Z</time>
      </trkpt>
      <trkpt lat="50.20133" lon="1.63195">
        <ele>-3.2</ele>
        <time>2014-09-20T12:51:27Z</time>
      </trkpt>
      <trkpt lat="50.20117" lon="1.63189">
        <ele>-0.6</ele>
        <time>2014-09-20T12:51:50Z</time>
      </trkpt>
      <trkpt lat="50.2011" lon="1.63181">
        <ele>-1.1</ele>
        <time>2014-09-20T12:52:04Z</time>
      </trkpt>
      <trkpt lat="50.20103" lon="1.63173">
        <ele>-1.6</ele>
        <time>2014-09-20T12:52:18Z</time>
      </trkpt>
      <trkpt lat="50.20094" lon="1.63174">
        <ele>-4</ele>
        <time>2014-09-20T12:52:29Z</time>
      </trkpt>
      <trkpt lat="50.20094" lon="1.63175">
        <ele>-4.3</ele>
        <time>2014-09-20T12:52:30Z</time>
      </trkpt>
      <trkpt lat="50.20078" lon="1.6318">
        <ele>-3.2</ele>
        <time>2014-09-20T12:52:51Z</time>
      </trkpt>
      <trkpt lat="50.2007" lon="1.63177">
        <ele>-0.9</ele>
        <time>2014-09-20T12:53:02Z</time>
      </trkpt>
      <trkpt lat="50.20061" lon="1.63172">
        <ele>4.2</ele>
        <time>2014-09-20T12:53:12Z</time>
      </trkpt>
      <trkpt lat="50.20053" lon="1.63171">
        <ele>-0.4</ele>
        <time>2014-09-20T12:53:21Z</time>
      </trkpt>
      <trkpt lat="50.20045" lon="1.63172">
        <ele>-3.1</ele>
        <time>2014-09-20T12:53:32Z</time>
      </trkpt>
      <trkpt lat="50.20044" lon="1.63173">
        <ele>-2.4</ele>
        <time>2014-09-20T12:53:33Z</time>
      </trkpt>
      <trkpt lat="50.20029" lon="1.63172">
        <ele>-2.6</ele>
        <time>2014-09-20T12:56:53Z</time>
      </trkpt>
      <trkpt lat="50.20028" lon="1.63171">
        <ele>-2.2</ele>
        <time>2014-09-20T12:56:54Z</time>
      </trkpt>
      <trkpt lat="50.20025" lon="1.63145">
        <ele>-1.9</ele>
        <time>2014-09-20T12:57:43Z</time>
      </trkpt>
      <trkpt lat="50.20024" lon="1.63132">
        <ele>-1.8</ele>
        <time>2014-09-20T12:58:48Z</time>
      </trkpt>
      <trkpt lat="50.20024" lon="1.6313">
        <ele>-1.6</ele>
        <time>2014-09-20T12:58:49Z</time>
      </trkpt>
      <trkpt lat="50.20028" lon="1.63105">
        <ele>-1.2</ele>
        <time>2014-09-20T12:59:16Z</time>
      </trkpt>
      <trkpt lat="50.20026" lon="1.63092">
        <ele>-2.2</ele>
        <time>2014-09-20T13:01:03Z</time>
      </trkpt>
      <trkpt lat="50.20026" lon="1.63091">
        <ele>-2.1</ele>
        <time>2014-09-20T13:01:04Z</time>
      </trkpt>
      <trkpt lat="50.20032" lon="1.63079">
        <ele>-3.5</ele>
        <time>2014-09-20T13:04:23Z</time>
      </trkpt>
      <trkpt lat="50.20037" lon="1.63054">
        <ele>-0.9</ele>
        <time>2014-09-20T13:04:45Z</time>
      </trkpt>
      <trkpt lat="50.2004" lon="1.63042">
        <ele>-1.9</ele>
        <time>2014-09-20T13:04:54Z</time>
      </trkpt>
      <trkpt lat="50.20041" lon="1.63029">
        <ele>-2.6</ele>
        <time>2014-09-20T13:05:02Z</time>
      </trkpt>
      <trkpt lat="50.20044" lon="1.63017">
        <ele>-1.7</ele>
        <time>2014-09-20T13:05:11Z</time>
      </trkpt>
      <trkpt lat="50.20048" lon="1.63004">
        <ele>-1.2</ele>
        <time>2014-09-20T13:05:21Z</time>
      </trkpt>
      <trkpt lat="50.20053" lon="1.62994">
        <ele>-0.9</ele>
        <time>2014-09-20T13:05:31Z</time>
      </trkpt>
      <trkpt lat="50.20054" lon="1.62993">
        <ele>-0.9</ele>
        <time>2014-09-20T13:05:32Z</time>
      </trkpt>
      <trkpt lat="50.20063" lon="1.62971">
        <ele>-2</ele>
        <time>2014-09-20T13:05:50Z</time>
      </trkpt>
      <trkpt lat="50.20068" lon="1.62961">
        <ele>-2.3</ele>
        <time>2014-09-20T13:05:59Z</time>
      </trkpt>
      <trkpt lat="50.20072" lon="1.62949">
        <ele>-2.3</ele>
        <time>2014-09-20T13:06:09Z</time>
      </trkpt>
      <trkpt lat="50.20077" lon="1.62938">
        <ele>-1.5</ele>
        <time>2014-09-20T13:06:21Z</time>
      </trkpt>
      <trkpt lat="50.20083" lon="1.62928">
        <ele>-3.7</ele>
        <time>2014-09-20T13:06:31Z</time>
      </trkpt>
      <trkpt lat="50.20088" lon="1.62918">
        <ele>-3.4</ele>
        <time>2014-09-20T13:06:40Z</time>
      </trkpt>
      <trkpt lat="50.20089" lon="1.62917">
        <ele>-4.1</ele>
        <time>2014-09-20T13:06:41Z</time>
      </trkpt>
      <trkpt lat="50.20099" lon="1.62896">
        <ele>-5.8</ele>
        <time>2014-09-20T13:06:59Z</time>
      </trkpt>
      <trkpt lat="50.20104" lon="1.62886">
        <ele>-6</ele>
        <time>2014-09-20T13:07:08Z</time>
      </trkpt>
      <trkpt lat="50.20108" lon="1.62875">
        <ele>-2.3</ele>
        <time>2014-09-20T13:07:17Z</time>
      </trkpt>
      <trkpt lat="50.20112" lon="1.62864">
        <ele>-2.2</ele>
        <time>2014-09-20T13:07:26Z</time>
      </trkpt>
      <trkpt lat="50.20111" lon="1.6285">
        <ele>-0.9</ele>
        <time>2014-09-20T13:07:37Z</time>
      </trkpt>
      <trkpt lat="50.20104" lon="1.62842">
        <ele>-0.6</ele>
        <time>2014-09-20T13:07:56Z</time>
      </trkpt>
      <trkpt lat="50.20103" lon="1.62842">
        <ele>-1.5</ele>
        <time>2014-09-20T13:07:57Z</time>
      </trkpt>
      <trkpt lat="50.20088" lon="1.62834">
        <ele>0.1</ele>
        <time>2014-09-20T13:08:18Z</time>
      </trkpt>
      <trkpt lat="50.2008" lon="1.62833">
        <ele>-0.4</ele>
        <time>2014-09-20T13:08:37Z</time>
      </trkpt>
      <trkpt lat="50.20073" lon="1.62826">
        <ele>0.3</ele>
        <time>2014-09-20T13:08:59Z</time>
      </trkpt>
      <trkpt lat="50.20072" lon="1.62826">
        <ele>0.4</ele>
        <time>2014-09-20T13:09:00Z</time>
      </trkpt>
      <trkpt lat="50.20056" lon="1.62819">
        <ele>0.5</ele>
        <time>2014-09-20T13:09:20Z</time>
      </trkpt>
      <trkpt lat="50.20047" lon="1.6282">
        <ele>-0.3</ele>
        <time>2014-09-20T13:09:29Z</time>
      </trkpt>
      <trkpt lat="50.2004" lon="1.62827">
        <ele>-1.7</ele>
        <time>2014-09-20T13:09:39Z</time>
      </trkpt>
      <trkpt lat="50.20033" lon="1.62835">
        <ele>-2.5</ele>
        <time>2014-09-20T13:09:48Z</time>
      </trkpt>
      <trkpt lat="50.20026" lon="1.62843">
        <ele>-2.7</ele>
        <time>2014-09-20T13:09:57Z</time>
      </trkpt>
      <trkpt lat="50.20019" lon="1.62848">
        <ele>-3.4</ele>
        <time>2014-09-20T13:10:06Z</time>
      </trkpt>
      <trkpt lat="50.20018" lon="1.62848">
        <ele>-2.4</ele>
        <time>2014-09-20T13:10:07Z</time>
      </trkpt>
      <trkpt lat="50.20003" lon="1.62857">
        <ele>1</ele>
        <time>2014-09-20T13:10:23Z</time>
      </trkpt>
      <trkpt lat="50.19995" lon="1.62864">
        <ele>0.1</ele>
        <time>2014-09-20T13:10:32Z</time>
      </trkpt>
      <trkpt lat="50.19988" lon="1.6287">
        <ele>-3.6</ele>
        <time>2014-09-20T13:10:43Z</time>
      </trkpt>
      <trkpt lat="50.1998" lon="1.62876">
        <ele>0.4</ele>
        <time>2014-09-20T13:10:54Z</time>
      </trkpt>
      <trkpt lat="50.19972" lon="1.62875">
        <ele>-1.3</ele>
        <time>2014-09-20T13:11:04Z</time>
      </trkpt>
      <trkpt lat="50.19964" lon="1.62869">
        <ele>0.3</ele>
        <time>2014-09-20T13:11:14Z</time>
      </trkpt>
      <trkpt lat="50.19964" lon="1.62868">
        <ele>0.1</ele>
        <time>2014-09-20T13:11:15Z</time>
      </trkpt>
      <trkpt lat="50.19948" lon="1.62859">
        <ele>-1.9</ele>
        <time>2014-09-20T13:11:35Z</time>
      </trkpt>
      <trkpt lat="50.19939" lon="1.62855">
        <ele>-1.6</ele>
        <time>2014-09-20T13:11:45Z</time>
      </trkpt>
      <trkpt lat="50.19932" lon="1.62849">
        <ele>-0.3</ele>
        <time>2014-09-20T13:11:54Z</time>
      </trkpt>
      <trkpt lat="50.19925" lon="1.62843">
        <ele>0.5</ele>
        <time>2014-09-20T13:12:02Z</time>
      </trkpt>
      <trkpt lat="50.19918" lon="1.62836">
        <ele>-0.2</ele>
        <time>2014-09-20T13:12:11Z</time>
      </trkpt>
      <trkpt lat="50.1991" lon="1.62829">
        <ele>0.5</ele>
        <time>2014-09-20T13:12:21Z</time>
      </trkpt>
      <trkpt lat="50.19909" lon="1.62828">
        <ele>0.5</ele>
        <time>2014-09-20T13:12:22Z</time>
      </trkpt>
      <trkpt lat="50.19897" lon="1.62811">
        <ele>0.4</ele>
        <time>2014-09-20T13:16:07Z</time>
      </trkpt>
      <trkpt lat="50.19896" lon="1.6281">
        <ele>0.4</ele>
        <time>2014-09-20T13:16:08Z</time>
      </trkpt>
      <trkpt lat="50.19884" lon="1.62795">
        <ele>-0.3</ele>
        <time>2014-09-20T13:16:28Z</time>
      </trkpt>
      <trkpt lat="50.19876" lon="1.62787">
        <ele>0.9</ele>
        <time>2014-09-20T13:16:40Z</time>
      </trkpt>
      <trkpt lat="50.1987" lon="1.62779">
        <ele>0.1</ele>
        <time>2014-09-20T13:16:52Z</time>
      </trkpt>
      <trkpt lat="50.19864" lon="1.62768">
        <ele>-2.7</ele>
        <time>2014-09-20T13:17:04Z</time>
      </trkpt>
      <trkpt lat="50.19858" lon="1.62759">
        <ele>-0.5</ele>
        <time>2014-09-20T13:17:16Z</time>
      </trkpt>
      <trkpt lat="50.19857" lon="1.62759">
        <ele>-0.6</ele>
        <time>2014-09-20T13:17:17Z</time>
      </trkpt>
      <trkpt lat="50.19846" lon="1.62738">
        <ele>-3.5</ele>
        <time>2014-09-20T13:18:26Z</time>
      </trkpt>
      <trkpt lat="50.19846" lon="1.62738">
        <ele>-4.2</ele>
        <time>2014-09-20T13:18:27Z</time>
      </trkpt>
      <trkpt lat="50.19837" lon="1.62737">
        <ele>0.2</ele>
        <time>2014-09-20T13:19:35Z</time>
      </trkpt>
      <trkpt lat="50.19828" lon="1.62741">
        <ele>-2.9</ele>
        <time>2014-09-20T13:20:46Z</time>
      </trkpt>
      <trkpt lat="50.19814" lon="1.62753">
        <ele>1.1</ele>
        <time>2014-09-20T13:21:04Z</time>
      </trkpt>
      <trkpt lat="50.19806" lon="1.6276">
        <ele>0.8</ele>
        <time>2014-09-20T13:21:13Z</time>
      </trkpt>
      <trkpt lat="50.19799" lon="1.62764">
        <ele>-0.4</ele>
        <time>2014-09-20T13:21:22Z</time>
      </trkpt>
      <trkpt lat="50.1979" lon="1.62764">
        <ele>-0.2</ele>
        <time>2014-09-20T13:21:36Z</time>
      </trkpt>
      <trkpt lat="50.19783" lon="1.62771">
        <ele>-2.8</ele>
        <time>2014-09-20T13:21:46Z</time>
      </trkpt>
      <trkpt lat="50.19782" lon="1.62772">
        <ele>-2</ele>
        <time>2014-09-20T13:21:47Z</time>
      </trkpt>
      <trkpt lat="50.1977" lon="1.62785">
        <ele>-2</ele>
        <time>2014-09-20T13:22:04Z</time>
      </trkpt>
      <trkpt lat="50.19762" lon="1.62791">
        <ele>0.9</ele>
        <time>2014-09-20T13:22:14Z</time>
      </trkpt>
      <trkpt lat="50.19754" lon="1.62796">
        <ele>5</ele>
        <time>2014-09-20T13:22:22Z</time>
      </trkpt>
      <trkpt lat="50.19746" lon="1.62802">
        <ele>0.1</ele>
        <time>2014-09-20T13:22:31Z</time>
      </trkpt>
      <trkpt lat="50.19739" lon="1.62809">
        <ele>0.4</ele>
        <time>2014-09-20T13:22:41Z</time>
      </trkpt>
      <trkpt lat="50.19733" lon="1.62819">
        <ele>0.1</ele>
        <time>2014-09-20T13:22:51Z</time>
      </trkpt>
      <trkpt lat="50.19732" lon="1.6282">
        <ele>0.2</ele>
        <time>2014-09-20T13:22:52Z</time>
      </trkpt>
      <trkpt lat="50.19723" lon="1.6284">
        <ele>0.3</ele>
        <time>2014-09-20T13:23:09Z</time>
      </trkpt>
      <trkpt lat="50.19716" lon="1.62849">
        <ele>-1</ele>
        <time>2014-09-20T13:23:18Z</time>
      </trkpt>
      <trkpt lat="50.1971" lon="1.62859">
        <ele>-0.5</ele>
        <time>2014-09-20T13:23:28Z</time>
      </trkpt>
      <trkpt lat="50.19705" lon="1.62868">
        <ele>-1.6</ele>
        <time>2014-09-20T13:23:37Z</time>
      </trkpt>
      <trkpt lat="50.19699" lon="1.62878">
        <ele>-0.1</ele>
        <time>2014-09-20T13:23:46Z</time>
      </trkpt>
      <trkpt lat="50.19694" lon="1.62889">
        <ele>-2.7</ele>
        <time>2014-09-20T13:23:55Z</time>
      </trkpt>
      <trkpt lat="50.19694" lon="1.6289">
        <ele>-3.7</ele>
        <time>2014-09-20T13:23:56Z</time>
      </trkpt>
      <trkpt lat="50.19684" lon="1.62909">
        <ele>-0.2</ele>
        <time>2014-09-20T13:24:22Z</time>
      </trkpt>
      <trkpt lat="50.19676" lon="1.62917">
        <ele>-0.7</ele>
        <time>2014-09-20T13:24:31Z</time>
      </trkpt>
      <trkpt lat="50.19668" lon="1.62919">
        <ele>0.4</ele>
        <time>2014-09-20T13:24:44Z</time>
      </trkpt>
      <trkpt lat="50.19661" lon="1.6291">
        <ele>1.4</ele>
        <time>2014-09-20T13:24:57Z</time>
      </trkpt>
      <trkpt lat="50.19661" lon="1.62909">
        <ele>1.4</ele>
        <time>2014-09-20T13:24:58Z</time>
      </trkpt>
      <trkpt lat="50.19653" lon="1.62888">
        <ele>4</ele>
        <time>2014-09-20T13:25:16Z</time>
      </trkpt>
      <trkpt lat="50.19653" lon="1.62875">
        <ele>0.1</ele>
        <time>2014-09-20T13:25:44Z</time>
      </trkpt>
      <trkpt lat="50.19645" lon="1.62873">
        <ele>-1.5</ele>
        <time>2014-09-20T13:26:13Z</time>
      </trkpt>
      <trkpt lat="50.19644" lon="1.62873">
        <ele>-1.4</ele>
        <time>2014-09-20T13:26:14Z</time>
      </trkpt>
      <trkpt lat="50.19629" lon="1.62872">
        <ele>-0.4</ele>
        <time>2014-09-20T13:27:18Z</time>
      </trkpt>
      <trkpt lat="50.19629" lon="1.62873">
        <ele>-0.4</ele>
        <time>2014-09-20T13:27:19Z</time>
      </trkpt>
      <trkpt lat="50.19613" lon="1.62871">
        <ele>-3.8</ele>
        <time>2014-09-20T13:27:43Z</time>
      </trkpt>
      <trkpt lat="50.19605" lon="1.6287">
        <ele>-7.5</ele>
        <time>2014-09-20T13:27:57Z</time>
      </trkpt>
      <trkpt lat="50.19597" lon="1.62872">
        <ele>-0.6</ele>
        <time>2014-09-20T13:28:16Z</time>
      </trkpt>
      <trkpt lat="50.19588" lon="1.62873">
        <ele>-1.2</ele>
        <time>2014-09-20T13:28:25Z</time>
      </trkpt>
      <trkpt lat="50.19587" lon="1.62873">
        <ele>-1.6</ele>
        <time>2014-09-20T13:28:26Z</time>
      </trkpt>
      <trkpt lat="50.19571" lon="1.62865">
        <ele>-4.1</ele>
        <time>2014-09-20T13:28:43Z</time>
      </trkpt>
      <trkpt lat="50.19563" lon="1.62861">
        <ele>-1.1</ele>
        <time>2014-09-20T13:28:53Z</time>
      </trkpt>
      <trkpt lat="50.19555" lon="1.62858">
        <ele>4</ele>
        <time>2014-09-20T13:29:03Z</time>
      </trkpt>
      <trkpt lat="50.19546" lon="1.62854">
        <ele>-1.2</ele>
        <time>2014-09-20T13:29:13Z</time>
      </trkpt>
      <trkpt lat="50.19539" lon="1.62849">
        <ele>-1.6</ele>
        <time>2014-09-20T13:29:22Z</time>
      </trkpt>
      <trkpt lat="50.19531" lon="1.62843">
        <ele>-1.9</ele>
        <time>2014-09-20T13:29:48Z</time>
      </trkpt>
      <trkpt lat="50.19531" lon="1.62843">
        <ele>-2.1</ele>
        <time>2014-09-20T13:29:49Z</time>
      </trkpt>
      <trkpt lat="50.19522" lon="1.62845">
        <ele>-2.4</ele>
        <time>2014-09-20T13:34:34Z</time>
      </trkpt>
      <trkpt lat="50.19507" lon="1.62834">
        <ele>-3.4</ele>
        <time>2014-09-20T13:34:57Z</time>
      </trkpt>
      <trkpt lat="50.19499" lon="1.62828">
        <ele>-3</ele>
        <time>2014-09-20T13:35:07Z</time>
      </trkpt>
      <trkpt lat="50.19491" lon="1.62822">
        <ele>-3.1</ele>
        <time>2014-09-20T13:35:17Z</time>
      </trkpt>
      <trkpt lat="50.19483" lon="1.62818">
        <ele>-3.5</ele>
        <time>2014-09-20T13:35:27Z</time>
      </trkpt>
      <trkpt lat="50.19474" lon="1.62818">
        <ele>-2.5</ele>
        <time>2014-09-20T13:35:38Z</time>
      </trkpt>
      <trkpt lat="50.19473" lon="1.62817">
        <ele>-2.1</ele>
        <time>2014-09-20T13:35:39Z</time>
      </trkpt>
      <trkpt lat="50.19457" lon="1.62815">
        <ele>-2.8</ele>
        <time>2014-09-20T13:35:56Z</time>
      </trkpt>
      <trkpt lat="50.19451" lon="1.62805">
        <ele>-2.6</ele>
        <time>2014-09-20T13:36:17Z</time>
      </trkpt>
      <trkpt lat="50.19443" lon="1.62803">
        <ele>-5.5</ele>
        <time>2014-09-20T13:36:26Z</time>
      </trkpt>
      <trkpt lat="50.19435" lon="1.62801">
        <ele>-3.2</ele>
        <time>2014-09-20T13:36:34Z</time>
      </trkpt>
      <trkpt lat="50.19426" lon="1.62799">
        <ele>-3.2</ele>
        <time>2014-09-20T13:36:43Z</time>
      </trkpt>
      <trkpt lat="50.19425" lon="1.62799">
        <ele>-3.2</ele>
        <time>2014-09-20T13:36:44Z</time>
      </trkpt>
      <trkpt lat="50.19409" lon="1.62791">
        <ele>-4.1</ele>
        <time>2014-09-20T13:37:00Z</time>
      </trkpt>
      <trkpt lat="50.19401" lon="1.62788">
        <ele>-4.1</ele>
        <time>2014-09-20T13:37:09Z</time>
      </trkpt>
      <trkpt lat="50.19392" lon="1.62786">
        <ele>-2.8</ele>
        <time>2014-09-20T13:37:18Z</time>
      </trkpt>
      <trkpt lat="50.19384" lon="1.62782">
        <ele>-2.4</ele>
        <time>2014-09-20T13:37:27Z</time>
      </trkpt>
      <trkpt lat="50.19376" lon="1.62778">
        <ele>-4.9</ele>
        <time>2014-09-20T13:37:36Z</time>
      </trkpt>
      <trkpt lat="50.19368" lon="1.62776">
        <ele>-8</ele>
        <time>2014-09-20T13:37:45Z</time>
      </trkpt>
      <trkpt lat="50.19367" lon="1.62776">
        <ele>-6.5</ele>
        <time>2014-09-20T13:37:46Z</time>
      </trkpt>
      <trkpt lat="50.19352" lon="1.62766">
        <ele>-3.7</ele>
        <time>2014-09-20T13:38:09Z</time>
      </trkpt>
      <trkpt lat="50.19344" lon="1.62763">
        <ele>-0.4</ele>
        <time>2014-09-20T13:38:23Z</time>
      </trkpt>
      <trkpt lat="50.19336" lon="1.6276">
        <ele>-7.7</ele>
        <time>2014-09-20T13:38:31Z</time>
      </trkpt>
      <trkpt lat="50.19328" lon="1.62756">
        <ele>-4.6</ele>
        <time>2014-09-20T13:38:40Z</time>
      </trkpt>
      <trkpt lat="50.1932" lon="1.62754">
        <ele>-4.1</ele>
        <time>2014-09-20T13:38:49Z</time>
      </trkpt>
      <trkpt lat="50.19319" lon="1.62754">
        <ele>-3.9</ele>
        <time>2014-09-20T13:38:50Z</time>
      </trkpt>
      <trkpt lat="50.19303" lon="1.62751">
        <ele>-4</ele>
        <time>2014-09-20T13:39:10Z</time>
      </trkpt>
      <trkpt lat="50.19294" lon="1.62752">
        <ele>-3.5</ele>
        <time>2014-09-20T13:39:22Z</time>
      </trkpt>
      <trkpt lat="50.19286" lon="1.62748">
        <ele>-3.9</ele>
        <time>2014-09-20T13:39:33Z</time>
      </trkpt>
      <trkpt lat="50.19278" lon="1.62748">
        <ele>-6.6</ele>
        <time>2014-09-20T13:39:49Z</time>
      </trkpt>
      <trkpt lat="50.19269" lon="1.62747">
        <ele>-7.7</ele>
        <time>2014-09-20T13:40:05Z</time>
      </trkpt>
      <trkpt lat="50.19268" lon="1.62747">
        <ele>-6.9</ele>
        <time>2014-09-20T13:40:06Z</time>
      </trkpt>
      <trkpt lat="50.19253" lon="1.62754">
        <ele>-5.9</ele>
        <time>2014-09-20T13:40:24Z</time>
      </trkpt>
      <trkpt lat="50.19247" lon="1.62764">
        <ele>-4.2</ele>
        <time>2014-09-20T13:40:34Z</time>
      </trkpt>
      <trkpt lat="50.19242" lon="1.62774">
        <ele>-4</ele>
        <time>2014-09-20T13:40:44Z</time>
      </trkpt>
      <trkpt lat="50.19237" lon="1.62784">
        <ele>-3.8</ele>
        <time>2014-09-20T13:40:52Z</time>
      </trkpt>
      <trkpt lat="50.19231" lon="1.62793">
        <ele>-5.2</ele>
        <time>2014-09-20T13:41:00Z</time>
      </trkpt>
      <trkpt lat="50.19225" lon="1.62802">
        <ele>-3</ele>
        <time>2014-09-20T13:41:08Z</time>
      </trkpt>
      <trkpt lat="50.19224" lon="1.62803">
        <ele>-5</ele>
        <time>2014-09-20T13:41:09Z</time>
      </trkpt>
      <trkpt lat="50.19215" lon="1.62823">
        <ele>-3.7</ele>
        <time>2014-09-20T13:41:27Z</time>
      </trkpt>
      <trkpt lat="50.1921" lon="1.62834">
        <ele>-4.1</ele>
        <time>2014-09-20T13:42:56Z</time>
      </trkpt>
      <trkpt lat="50.1921" lon="1.62834">
        <ele>-3.7</ele>
        <time>2014-09-20T13:42:57Z</time>
      </trkpt>
      <trkpt lat="50.19206" lon="1.62848">
        <ele>-5.4</ele>
        <time>2014-09-20T13:44:57Z</time>
      </trkpt>
      <trkpt lat="50.19197" lon="1.62868">
        <ele>-5.1</ele>
        <time>2014-09-20T13:45:16Z</time>
      </trkpt>
      <trkpt lat="50.19192" lon="1.62879">
        <ele>-4</ele>
        <time>2014-09-20T13:45:25Z</time>
      </trkpt>
      <trkpt lat="50.19187" lon="1.62889">
        <ele>-4</ele>
        <time>2014-09-20T13:45:34Z</time>
      </trkpt>
      <trkpt lat="50.19182" lon="1.629">
        <ele>-4.1</ele>
        <time>2014-09-20T13:45:44Z</time>
      </trkpt>
      <trkpt lat="50.19178" lon="1.62912">
        <ele>-4.5</ele>
        <time>2014-09-20T13:45:54Z</time>
      </trkpt>
      <trkpt lat="50.19174" lon="1.62923">
        <ele>-8.8</ele>
        <time>2014-09-20T13:46:03Z</time>
      </trkpt>
      <trkpt lat="50.19174" lon="1.62924">
        <ele>-7.7</ele>
        <time>2014-09-20T13:46:04Z</time>
      </trkpt>
      <trkpt lat="50.19167" lon="1.62946">
        <ele>-5.5</ele>
        <time>2014-09-20T13:46:21Z</time>
      </trkpt>
      <trkpt lat="50.19164" lon="1.62959">
        <ele>-5.6</ele>
        <time>2014-09-20T13:46:30Z</time>
      </trkpt>
      <trkpt lat="50.19161" lon="1.62971">
        <ele>-4.6</ele>
        <time>2014-09-20T13:46:38Z</time>
      </trkpt>
      <trkpt lat="50.19157" lon="1.62982">
        <ele>-3.9</ele>
        <time>2014-09-20T13:46:45Z</time>
      </trkpt>
      <trkpt lat="50.19154" lon="1.62993">
        <ele>-3.4</ele>
        <time>2014-09-20T13:46:51Z</time>
      </trkpt>
      <trkpt lat="50.19151" lon="1.63006">
        <ele>-6.3</ele>
        <time>2014-09-20T13:46:59Z</time>
      </trkpt>
      <trkpt lat="50.19149" lon="1.63019">
        <ele>-3.9</ele>
        <time>2014-09-20T13:47:08Z</time>
      </trkpt>
      <trkpt lat="50.19148" lon="1.63021">
        <ele>-4</ele>
        <time>2014-09-20T13:47:09Z</time>
      </trkpt>
      <trkpt lat="50.19146" lon="1.63046">
        <ele>-4.4</ele>
        <time>2014-09-20T13:47:27Z</time>
      </trkpt>
      <trkpt lat="50.19146" lon="1.63059">
        <ele>-4.1</ele>
        <time>2014-09-20T13:47:36Z</time>
      </trkpt>
      <trkpt lat="50.19145" lon="1.63072">
        <ele>-4.9</ele>
        <time>2014-09-20T13:47:45Z</time>
      </trkpt>
      <trkpt lat="50.19143" lon="1.63085">
        <ele>-4.2</ele>
        <time>2014-09-20T13:47:54Z</time>
      </trkpt>
      <trkpt lat="50.19137" lon="1.63095">
        <ele>-3.5</ele>
        <time>2014-09-20T13:48:03Z</time>
      </trkpt>
      <trkpt lat="50.19132" lon="1.63104">
        <ele>-4.2</ele>
        <time>2014-09-20T13:48:11Z</time>
      </trkpt>
      <trkpt lat="50.19132" lon="1.63106">
        <ele>-4</ele>
        <time>2014-09-20T13:48:12Z</time>
      </trkpt>
      <trkpt lat="50.19123" lon="1.63127">
        <ele>-5.6</ele>
        <time>2014-09-20T13:48:28Z</time>
      </trkpt>
      <trkpt lat="50.19118" lon="1.63138">
        <ele>-4.3</ele>
        <time>2014-09-20T13:48:37Z</time>
      </trkpt>
      <trkpt lat="50.19113" lon="1.63149">
        <ele>-6.2</ele>
        <time>2014-09-20T13:48:46Z</time>
      </trkpt>
      <trkpt lat="50.19107" lon="1.63159">
        <ele>-3.2</ele>
        <time>2014-09-20T13:48:56Z</time>
      </trkpt>
      <trkpt lat="50.19101" lon="1.63169">
        <ele>-4</ele>
        <time>2014-09-20T13:49:05Z</time>
      </trkpt>
      <trkpt lat="50.19095" lon="1.63179">
        <ele>-6.6</ele>
        <time>2014-09-20T13:49:14Z</time>
      </trkpt>
      <trkpt lat="50.19095" lon="1.6318">
        <ele>-5.8</ele>
        <time>2014-09-20T13:49:15Z</time>
      </trkpt>
      <trkpt lat="50.19085" lon="1.63201">
        <ele>-5.8</ele>
        <time>2014-09-20T13:49:36Z</time>
      </trkpt>
      <trkpt lat="50.19079" lon="1.6321">
        <ele>-4.8</ele>
        <time>2014-09-20T13:53:27Z</time>
      </trkpt>
      <trkpt lat="50.19079" lon="1.63211">
        <ele>-4.7</ele>
        <time>2014-09-20T13:53:28Z</time>
      </trkpt>
      <trkpt lat="50.1907" lon="1.63232">
        <ele>-5.5</ele>
        <time>2014-09-20T13:53:49Z</time>
      </trkpt>
      <trkpt lat="50.19066" lon="1.63244">
        <ele>-5.6</ele>
        <time>2014-09-20T13:53:59Z</time>
      </trkpt>
      <trkpt lat="50.19062" lon="1.63256">
        <ele>-5.4</ele>
        <time>2014-09-20T13:54:10Z</time>
      </trkpt>
      <trkpt lat="50.19057" lon="1.63266">
        <ele>-6.1</ele>
        <time>2014-09-20T13:54:24Z</time>
      </trkpt>
      <trkpt lat="50.19053" lon="1.63278">
        <ele>-4.7</ele>
        <time>2014-09-20T13:54:34Z</time>
      </trkpt>
      <trkpt lat="50.19053" lon="1.63279">
        <ele>-4.6</ele>
        <time>2014-09-20T13:54:35Z</time>
      </trkpt>
      <trkpt lat="50.19043" lon="1.633">
        <ele>-4.5</ele>
        <time>2014-09-20T13:54:50Z</time>
      </trkpt>
      <trkpt lat="50.19038" lon="1.6331">
        <ele>-5.4</ele>
        <time>2014-09-20T13:54:58Z</time>
      </trkpt>
      <trkpt lat="50.19034" lon="1.63321">
        <ele>-5.6</ele>
        <time>2014-09-20T13:55:06Z</time>
      </trkpt>
      <trkpt lat="50.1903" lon="1.63332">
        <ele>-6.7</ele>
        <time>2014-09-20T13:55:14Z</time>
      </trkpt>
      <trkpt lat="50.19025" lon="1.63342">
        <ele>-5</ele>
        <time>2014-09-20T13:55:22Z</time>
      </trkpt>
      <trkpt lat="50.19018" lon="1.63351">
        <ele>-6.5</ele>
        <time>2014-09-20T13:55:33Z</time>
      </trkpt>
      <trkpt lat="50.1901" lon="1.63355">
        <ele>-4.7</ele>
        <time>2014-09-20T13:55:43Z</time>
      </trkpt>
      <trkpt lat="50.19009" lon="1.63355">
        <ele>-4.6</ele>
        <time>2014-09-20T13:55:44Z</time>
      </trkpt>
      <trkpt lat="50.18994" lon="1.63361">
        <ele>-6.1</ele>
        <time>2014-09-20T13:56:01Z</time>
      </trkpt>
      <trkpt lat="50.18986" lon="1.63365">
        <ele>-5</ele>
        <time>2014-09-20T13:56:10Z</time>
      </trkpt>
      <trkpt lat="50.18979" lon="1.63373">
        <ele>-6.4</ele>
        <time>2014-09-20T13:56:19Z</time>
      </trkpt>
      <trkpt lat="50.18973" lon="1.63382">
        <ele>-7.7</ele>
        <time>2014-09-20T13:56:28Z</time>
      </trkpt>
      <trkpt lat="50.18968" lon="1.63392">
        <ele>-5.9</ele>
        <time>2014-09-20T13:56:38Z</time>
      </trkpt>
      <trkpt lat="50.18963" lon="1.63403">
        <ele>-8.1</ele>
        <time>2014-09-20T13:56:47Z</time>
      </trkpt>
      <trkpt lat="50.18962" lon="1.63404">
        <ele>-7.2</ele>
        <time>2014-09-20T13:56:48Z</time>
      </trkpt>
      <trkpt lat="50.18951" lon="1.63421">
        <ele>-10.4</ele>
        <time>2014-09-20T13:57:05Z</time>
      </trkpt>
      <trkpt lat="50.18946" lon="1.63432">
        <ele>-9</ele>
        <time>2014-09-20T13:57:14Z</time>
      </trkpt>
      <trkpt lat="50.18941" lon="1.63442">
        <ele>-6.3</ele>
        <time>2014-09-20T13:57:21Z</time>
      </trkpt>
      <trkpt lat="50.18936" lon="1.63453">
        <ele>-5.3</ele>
        <time>2014-09-20T13:57:29Z</time>
      </trkpt>
      <trkpt lat="50.18932" lon="1.63465">
        <ele>-5.3</ele>
        <time>2014-09-20T13:57:37Z</time>
      </trkpt>
      <trkpt lat="50.18927" lon="1.63476">
        <ele>-5.9</ele>
        <time>2014-09-20T13:57:45Z</time>
      </trkpt>
      <trkpt lat="50.18923" lon="1.63488">
        <ele>-6.5</ele>
        <time>2014-09-20T13:57:54Z</time>
      </trkpt>
      <trkpt lat="50.18923" lon="1.63489">
        <ele>-6.2</ele>
        <time>2014-09-20T13:57:55Z</time>
      </trkpt>
      <trkpt lat="50.18916" lon="1.63511">
        <ele>-7.1</ele>
        <time>2014-09-20T13:58:10Z</time>
      </trkpt>
      <trkpt lat="50.18912" lon="1.63523">
        <ele>-6.3</ele>
        <time>2014-09-20T13:58:18Z</time>
      </trkpt>
      <trkpt lat="50.18909" lon="1.63535">
        <ele>-9</ele>
        <time>2014-09-20T13:58:26Z</time>
      </trkpt>
      <trkpt lat="50.18905" lon="1.63546">
        <ele>-7.6</ele>
        <time>2014-09-20T13:58:34Z</time>
      </trkpt>
      <trkpt lat="50.18901" lon="1.63557">
        <ele>-5.8</ele>
        <time>2014-09-20T13:58:43Z</time>
      </trkpt>
      <trkpt lat="50.18897" lon="1.63569">
        <ele>-7</ele>
        <time>2014-09-20T13:58:53Z</time>
      </trkpt>
      <trkpt lat="50.18892" lon="1.6358">
        <ele>-6.6</ele>
        <time>2014-09-20T13:59:03Z</time>
      </trkpt>
      <trkpt lat="50.18892" lon="1.63581">
        <ele>-6.6</ele>
        <time>2014-09-20T13:59:04Z</time>
      </trkpt>
      <trkpt lat="50.18886" lon="1.63605">
        <ele>-8.9</ele>
        <time>2014-09-20T13:59:35Z</time>
      </trkpt>
      <trkpt lat="50.18883" lon="1.63616">
        <ele>-6</ele>
        <time>2014-09-20T13:59:44Z</time>
      </trkpt>
      <trkpt lat="50.1888" lon="1.63629">
        <ele>-6.7</ele>
        <time>2014-09-20T13:59:53Z</time>
      </trkpt>
      <trkpt lat="50.18877" lon="1.63642">
        <ele>-6.2</ele>
        <time>2014-09-20T14:00:02Z</time>
      </trkpt>
      <trkpt lat="50.18874" lon="1.63655">
        <ele>-6.9</ele>
        <time>2014-09-20T14:00:11Z</time>
      </trkpt>
      <trkpt lat="50.18874" lon="1.63656">
        <ele>-6.7</ele>
        <time>2014-09-20T14:00:12Z</time>
      </trkpt>
      <trkpt lat="50.18868" lon="1.63681">
        <ele>-5.9</ele>
        <time>2014-09-20T14:00:30Z</time>
      </trkpt>
      <trkpt lat="50.18866" lon="1.63693">
        <ele>-5</ele>
        <time>2014-09-20T14:00:39Z</time>
      </trkpt>
      <trkpt lat="50.18863" lon="1.63706">
        <ele>-4.9</ele>
        <time>2014-09-20T14:00:48Z</time>
      </trkpt>
      <trkpt lat="50.1886" lon="1.63719">
        <ele>-5.3</ele>
        <time>2014-09-20T14:00:58Z</time>
      </trkpt>
      <trkpt lat="50.18858" lon="1.63732">
        <ele>-7.6</ele>
        <time>2014-09-20T14:01:08Z</time>
      </trkpt>
      <trkpt lat="50.18855" lon="1.63744">
        <ele>-6.6</ele>
        <time>2014-09-20T14:01:17Z</time>
      </trkpt>
      <trkpt lat="50.18855" lon="1.63746">
        <ele>-5.8</ele>
        <time>2014-09-20T14:01:18Z</time>
      </trkpt>
      <trkpt lat="50.1885" lon="1.6377">
        <ele>-6.4</ele>
        <time>2014-09-20T14:01:34Z</time>
      </trkpt>
      <trkpt lat="50.18847" lon="1.63782">
        <ele>-6.2</ele>
        <time>2014-09-20T14:01:45Z</time>
      </trkpt>
      <trkpt lat="50.18845" lon="1.63794">
        <ele>-5.8</ele>
        <time>2014-09-20T14:01:56Z</time>
      </trkpt>
      <trkpt lat="50.18841" lon="1.63806">
        <ele>-4.1</ele>
        <time>2014-09-20T14:02:05Z</time>
      </trkpt>
      <trkpt lat="50.18838" lon="1.63818">
        <ele>-6.3</ele>
        <time>2014-09-20T14:02:14Z</time>
      </trkpt>
      <trkpt lat="50.18834" lon="1.6383">
        <ele>-5.3</ele>
        <time>2014-09-20T14:02:23Z</time>
      </trkpt>
      <trkpt lat="50.18834" lon="1.63832">
        <ele>-5.2</ele>
        <time>2014-09-20T14:02:24Z</time>
      </trkpt>
    </trkseg>
  </trk>
</gpx>